In Rescue
 
Open Full Screen Window  High Contrast Mode
Wind Gusting 00 knots
06
May 25, 2022 9:43 PM CDT
Weather Information
Wind Direction
  030 °
Wind Speed
  06 kt (7 mph)
Wind Gust
  00 kt (0 mph)
Altimeter
29.92 in
Visibility
10 SM
Temperature
11° C
52° F
Dewpoint
09° C
48° F
Humidity
88%
1hr Rain Fall
00.00 in.
24hr Rain Fall
00.03 in.
Sky Condition
Overcast @ 1,900 ft
MVFR

METAR KCNB 260243Z AUTO 03006KT 10SM OVC019 11/09 A2992 RMK AO2

FAA Disclaimer: The data displayed is for advisory purposes only and is not to be used for flight planning or operations.